sensor_id;sensor_type;location;lat;lon;timestamp;temperature;humidity
19538;DHT22;9914;51.008;4.300;2023-11-19T00:00:34;15.00;99.90
19538;DHT22;9914;51.008;4.300;2023-11-19T00:02:59;14.90;99.90
19538;DHT22;9914;51.008;4.300;2023-11-19T00:05:25;14.90;99.90
19538;DHT22;9914;51.008;4.300;2023-11-19T00:07:53;15.00;99.90
19538;DHT22;9914;51.008;4.300;2023-11-19T00:10:18;15.00;99.90
19538;DHT22;9914;51.008;4.300;2023-11-19T00:12:46;15.00;99.90
19538;DHT22;9914;51.008;4.300;2023-11-19T00:15:12;15.10;99.90
19538;DHT22;9914;51.008;4.300;2023-11-19T00:17:39;15.10;99.90
19538;DHT22;9914;51.008;4.300;2023-11-19T00:20:16;15.10;99.90
19538;DHT22;9914;51.008;4.300;2023-11-19T00:22:43;15.10;99.90
19538;DHT22;9914;51.008;4.300;2023-11-19T00:25:09;15.10;99.90
19538;DHT22;9914;51.008;4.300;2023-11-19T00:27:36;15.20;99.90
19538;DHT22;9914;51.008;4.300;2023-11-19T00:30:06;15.10;99.90
19538;DHT22;9914;51.008;4.300;2023-11-19T00:32:32;15.20;99.90
19538;DHT22;9914;51.008;4.300;2023-11-19T00:34:58;15.20;99.90
19538;DHT22;9914;51.008;4.300;2023-11-19T00:37:24;15.10;99.90
19538;DHT22;9914;51.008;4.300;2023-11-19T00:39:49;15.10;99.90
19538;DHT22;9914;51.008;4.300;2023-11-19T00:42:15;15.00;99.90
19538;DHT22;9914;51.008;4.300;2023-11-19T00:44:41;14.90;99.90
19538;DHT22;9914;51.008;4.300;2023-11-19T00:47:07;14.90;99.90
19538;DHT22;9914;51.008;4.300;2023-11-19T00:49:32;14.90;99.90
19538;DHT22;9914;51.008;4.300;2023-11-19T00:51:59;14.90;99.90
19538;DHT22;9914;51.008;4.300;2023-11-19T00:54:25;14.90;99.90
19538;DHT22;9914;51.008;4.300;2023-11-19T00:56:54;14.90;99.90
19538;DHT22;9914;51.008;4.300;2023-11-19T00:59:20;14.90;99.90
19538;DHT22;9914;51.008;4.300;2023-11-19T01:01:46;15.00;99.90
19538;DHT22;9914;51.008;4.300;2023-11-19T01:04:16;15.10;99.90
19538;DHT22;9914;51.008;4.300;2023-11-19T01:06:42;15.10;99.90
19538;DHT22;9914;51.008;4.300;2023-11-19T01:09:08;15.20;99.90
19538;DHT22;9914;51.008;4.300;2023-11-19T01:11:34;15.10;99.90
19538;DHT22;9914;51.008;4.300;2023-11-19T01:14:00;15.20;99.90
19538;DHT22;9914;51.008;4.300;2023-11-19T01:16:26;15.10;99.90
19538;DHT22;9914;51.008;4.300;2023-11-19T01:18:52;15.00;99.90
19538;DHT22;9914;51.008;4.300;2023-11-19T01:21:18;15.00;99.90
19538;DHT22;9914;51.008;4.300;2023-11-19T01:23:44;15.00;99.90
19538;DHT22;9914;51.008;4.300;2023-11-19T01:26:10;14.90;99.90
19538;DHT22;9914;51.008;4.300;2023-11-19T01:28:36;15.00;99.90
19538;DHT22;9914;51.008;4.300;2023-11-19T01:31:02;15.00;99.90
19538;DHT22;9914;51.008;4.300;2023-11-19T01:33:29;15.00;99.90
19538;DHT22;9914;51.008;4.300;2023-11-19T01:35:55;15.00;99.90
19538;DHT22;9914;51.008;4.300;2023-11-19T01:38:21;14.90;99.90
19538;DHT22;9914;51.008;4.300;2023-11-19T01:40:47;14.90;99.90
19538;DHT22;9914;51.008;4.300;2023-11-19T01:43:31;14.90;99.90
19538;DHT22;9914;51.008;4.300;2023-11-19T01:45:58;14.80;99.90
19538;DHT22;9914;51.008;4.300;2023-11-19T01:48:24;14.70;99.90
19538;DHT22;9914;51.008;4.300;2023-11-19T01:50:50;14.60;99.90
19538;DHT22;9914;51.008;4.300;2023-11-19T01:53:17;14.60;99.90
19538;DHT22;9914;51.008;4.300;2023-11-19T01:55:43;14.60;99.90
19538;DHT22;9914;51.008;4.300;2023-11-19T01:58:09;14.60;99.90
19538;DHT22;9914;51.008;4.300;2023-11-19T02:00:35;14.60;99.90
19538;DHT22;9914;51.008;4.300;2023-11-19T02:03:00;14.60;99.90
19538;DHT22;9914;51.008;4.300;2023-11-19T02:05:26;14.60;99.90
19538;DHT22;9914;51.008;4.300;2023-11-19T02:07:52;14.50;99.90
19538;DHT22;9914;51.008;4.300;2023-11-19T02:10:17;14.40;99.90
19538;DHT22;9914;51.008;4.300;2023-11-19T02:12:44;14.40;99.90
19538;DHT22;9914;51.008;4.300;2023-11-19T02:15:11;14.40;99.90
19538;DHT22;9914;51.008;4.300;2023-11-19T02:17:37;14.40;99.90
19538;DHT22;9914;51.008;4.300;2023-11-19T02:20:06;14.50;99.90
19538;DHT22;9914;51.008;4.300;2023-11-19T02:22:34;14.60;99.90
19538;DHT22;9914;51.008;4.300;2023-11-19T02:25:03;14.70;99.90
19538;DHT22;9914;51.008;4.300;2023-11-19T02:30:11;14.60;99.90
19538;DHT22;9914;51.008;4.300;2023-11-19T02:32:41;14.50;99.90
19538;DHT22;9914;51.008;4.300;2023-11-19T02:35:07;14.40;99.90
19538;DHT22;9914;51.008;4.300;2023-11-19T02:37:37;14.40;99.90
19538;DHT22;9914;51.008;4.300;2023-11-19T02:40:04;14.30;99.90
19538;DHT22;9914;51.008;4.300;2023-11-19T02:42:31;14.30;99.90
19538;DHT22;9914;51.008;4.300;2023-11-19T02:44:57;14.20;99.90
19538;DHT22;9914;51.008;4.300;2023-11-19T02:47:23;14.20;99.90
19538;DHT22;9914;51.008;4.300;2023-11-19T02:49:49;14.20;99.90
19538;DHT22;9914;51.008;4.300;2023-11-19T02:52:15;14.20;99.90
19538;DHT22;9914;51.008;4.300;2023-11-19T02:54:42;14.20;99.90
19538;DHT22;9914;51.008;4.300;2023-11-19T02:57:08;14.30;99.90
19538;DHT22;9914;51.008;4.300;2023-11-19T02:59:38;14.30;99.90
19538;DHT22;9914;51.008;4.300;2023-11-19T03:02:08;14.30;99.90
19538;DHT22;9914;51.008;4.300;2023-11-19T03:04:37;14.20;99.90
19538;DHT22;9914;51.008;4.300;2023-11-19T03:07:05;14.20;99.90
19538;DHT22;9914;51.008;4.300;2023-11-19T03:09:32;14.20;99.90
19538;DHT22;9914;51.008;4.300;2023-11-19T03:11:59;14.20;99.90
19538;DHT22;9914;51.008;4.300;2023-11-19T03:14:24;14.10;99.90
19538;DHT22;9914;51.008;4.300;2023-11-19T03:16:51;14.10;99.90
19538;DHT22;9914;51.008;4.300;2023-11-19T03:19:16;14.00;99.90
19538;DHT22;9914;51.008;4.300;2023-11-19T03:21:42;14.00;99.90
19538;DHT22;9914;51.008;4.300;2023-11-19T03:24:07;14.00;99.90
19538;DHT22;9914;51.008;4.300;2023-11-19T03:26:34;14.00;99.90
19538;DHT22;9914;51.008;4.300;2023-11-19T03:29:00;13.90;99.90
19538;DHT22;9914;51.008;4.300;2023-11-19T03:31:26;13.90;99.90
19538;DHT22;9914;51.008;4.300;2023-11-19T03:33:51;13.80;99.90
19538;DHT22;9914;51.008;4.300;2023-11-19T03:36:17;13.80;99.90
19538;DHT22;9914;51.008;4.300;2023-11-19T03:38:42;13.80;99.90
19538;DHT22;9914;51.008;4.300;2023-11-19T03:41:12;13.70;99.90
19538;DHT22;9914;51.008;4.300;2023-11-19T03:43:39;13.70;99.90
19538;DHT22;9914;51.008;4.300;2023-11-19T03:46:05;13.70;99.90
19538;DHT22;9914;51.008;4.300;2023-11-19T03:48:40;13.70;99.90
19538;DHT22;9914;51.008;4.300;2023-11-19T03:51:06;13.70;99.90
19538;DHT22;9914;51.008;4.300;2023-11-19T03:53:31;13.60;99.90
19538;DHT22;9914;51.008;4.300;2023-11-19T03:55:57;13.70;99.90
19538;DHT22;9914;51.008;4.300;2023-11-19T03:58:22;13.70;99.90
19538;DHT22;9914;51.008;4.300;2023-11-19T04:00:48;13.70;99.90
19538;DHT22;9914;51.008;4.300;2023-11-19T04:03:13;13.70;99.90
19538;DHT22;9914;51.008;4.300;2023-11-19T04:05:39;13.70;99.90
19538;DHT22;9914;51.008;4.300;2023-11-19T04:08:04;13.70;99.90
19538;DHT22;9914;51.008;4.300;2023-11-19T04:10:30;13.70;99.90
19538;DHT22;9914;51.008;4.300;2023-11-19T04:12:56;13.70;99.90
19538;DHT22;9914;51.008;4.300;2023-11-19T04:15:22;13.70;99.90
19538;DHT22;9914;51.008;4.300;2023-11-19T04:17:47;13.70;99.90
19538;DHT22;9914;51.008;4.300;2023-11-19T04:20:14;13.70;99.90
19538;DHT22;9914;51.008;4.300;2023-11-19T04:22:39;13.60;99.90
19538;DHT22;9914;51.008;4.300;2023-11-19T04:25:06;13.50;99.90
19538;DHT22;9914;51.008;4.300;2023-11-19T04:27:32;13.50;99.90
19538;DHT22;9914;51.008;4.300;2023-11-19T04:29:57;13.50;99.90
19538;DHT22;9914;51.008;4.300;2023-11-19T04:32:23;13.50;99.90
19538;DHT22;9914;51.008;4.300;2023-11-19T04:34:50;13.40;99.90
19538;DHT22;9914;51.008;4.300;2023-11-19T04:37:16;13.40;99.90
19538;DHT22;9914;51.008;4.300;2023-11-19T04:39:44;13.40;99.90
19538;DHT22;9914;51.008;4.300;2023-11-19T04:42:10;13.40;99.90
19538;DHT22;9914;51.008;4.300;2023-11-19T04:44:35;13.40;99.90
19538;DHT22;9914;51.008;4.300;2023-11-19T04:47:01;13.40;99.90
19538;DHT22;9914;51.008;4.300;2023-11-19T04:49:26;13.40;99.90
19538;DHT22;9914;51.008;4.300;2023-11-19T04:51:52;13.40;99.90
19538;DHT22;9914;51.008;4.300;2023-11-19T04:54:19;13.30;99.90
19538;DHT22;9914;51.008;4.300;2023-11-19T04:56:47;13.30;99.90
19538;DHT22;9914;51.008;4.300;2023-11-19T04:59:14;13.30;99.90
19538;DHT22;9914;51.008;4.300;2023-11-19T05:01:39;13.30;99.90
19538;DHT22;9914;51.008;4.300;2023-11-19T05:04:06;13.30;99.90
19538;DHT22;9914;51.008;4.300;2023-11-19T05:06:33;13.30;99.90
19538;DHT22;9914;51.008;4.300;2023-11-19T05:08:59;13.30;99.90
19538;DHT22;9914;51.008;4.300;2023-11-19T05:11:35;13.30;99.90
19538;DHT22;9914;51.008;4.300;2023-11-19T05:14:04;13.30;99.90
19538;DHT22;9914;51.008;4.300;2023-11-19T05:16:30;13.20;99.90
19538;DHT22;9914;51.008;4.300;2023-11-19T05:18:56;13.30;99.90
19538;DHT22;9914;51.008;4.300;2023-11-19T05:21:22;13.30;99.90
19538;DHT22;9914;51.008;4.300;2023-11-19T05:23:47;13.20;99.90
19538;DHT22;9914;51.008;4.300;2023-11-19T05:26:20;13.20;99.90
19538;DHT22;9914;51.008;4.300;2023-11-19T05:28:47;13.20;99.90
19538;DHT22;9914;51.008;4.300;2023-11-19T05:31:13;13.10;99.90
19538;DHT22;9914;51.008;4.300;2023-11-19T05:33:38;13.10;99.90
19538;DHT22;9914;51.008;4.300;2023-11-19T05:36:05;13.10;99.90
19538;DHT22;9914;51.008;4.300;2023-11-19T05:38:30;13.20;99.90
19538;DHT22;9914;51.008;4.300;2023-11-19T05:40:56;13.10;99.90
19538;DHT22;9914;51.008;4.300;2023-11-19T05:43:22;13.10;99.90
19538;DHT22;9914;51.008;4.300;2023-11-19T05:45:48;13.00;99.90
19538;DHT22;9914;51.008;4.300;2023-11-19T05:48:13;13.00;99.90
19538;DHT22;9914;51.008;4.300;2023-11-19T05:50:39;13.00;99.90
19538;DHT22;9914;51.008;4.300;2023-11-19T05:53:05;13.00;99.90
19538;DHT22;9914;51.008;4.300;2023-11-19T05:55:34;13.00;99.90
19538;DHT22;9914;51.008;4.300;2023-11-19T05:58:01;12.90;99.90
19538;DHT22;9914;51.008;4.300;2023-11-19T06:00:26;12.90;99.90
19538;DHT22;9914;51.008;4.300;2023-11-19T06:02:52;12.90;99.90
19538;DHT22;9914;51.008;4.300;2023-11-19T06:05:18;12.90;99.90
19538;DHT22;9914;51.008;4.300;2023-11-19T06:07:44;12.90;99.90
19538;DHT22;9914;51.008;4.300;2023-11-19T06:10:10;12.90;99.90
19538;DHT22;9914;51.008;4.300;2023-11-19T06:12:36;13.00;99.90
19538;DHT22;9914;51.008;4.300;2023-11-19T06:15:05;13.00;99.90
19538;DHT22;9914;51.008;4.300;2023-11-19T06:17:31;13.00;99.90
19538;DHT22;9914;51.008;4.300;2023-11-19T06:19:57;13.10;99.90
19538;DHT22;9914;51.008;4.300;2023-11-19T06:22:22;13.10;99.90
19538;DHT22;9914;51.008;4.300;2023-11-19T06:24:48;13.10;99.90
19538;DHT22;9914;51.008;4.300;2023-11-19T06:27:13;13.00;99.90
19538;DHT22;9914;51.008;4.300;2023-11-19T06:29:39;13.00;99.90
19538;DHT22;9914;51.008;4.300;2023-11-19T06:32:06;13.00;99.90
19538;DHT22;9914;51.008;4.300;2023-11-19T06:34:33;12.90;99.90
19538;DHT22;9914;51.008;4.300;2023-11-19T06:36:59;12.80;99.90
19538;DHT22;9914;51.008;4.300;2023-11-19T06:39:25;12.80;99.90
19538;DHT22;9914;51.008;4.300;2023-11-19T06:41:51;12.80;99.90
19538;DHT22;9914;51.008;4.300;2023-11-19T06:44:17;12.80;99.90
19538;DHT22;9914;51.008;4.300;2023-11-19T06:46:43;12.70;99.90
19538;DHT22;9914;51.008;4.300;2023-11-19T06:49:09;12.70;99.90
19538;DHT22;9914;51.008;4.300;2023-11-19T06:51:34;12.70;99.90
19538;DHT22;9914;51.008;4.300;2023-11-19T06:54:00;12.60;99.90
19538;DHT22;9914;51.008;4.300;2023-11-19T06:56:26;12.60;99.90
19538;DHT22;9914;51.008;4.300;2023-11-19T06:58:52;12.50;99.90
19538;DHT22;9914;51.008;4.300;2023-11-19T07:01:19;12.50;99.90
19538;DHT22;9914;51.008;4.300;2023-11-19T07:03:45;12.50;99.90
19538;DHT22;9914;51.008;4.300;2023-11-19T07:06:11;12.60;99.90
19538;DHT22;9914;51.008;4.300;2023-11-19T07:08:38;12.60;99.90
19538;DHT22;9914;51.008;4.300;2023-11-19T07:11:04;12.50;99.90
19538;DHT22;9914;51.008;4.300;2023-11-19T07:13:30;12.50;99.90
19538;DHT22;9914;51.008;4.300;2023-11-19T07:15:58;12.50;99.90
19538;DHT22;9914;51.008;4.300;2023-11-19T07:18:24;12.50;99.90
19538;DHT22;9914;51.008;4.300;2023-11-19T07:20:50;12.50;99.90
19538;DHT22;9914;51.008;4.300;2023-11-19T07:23:15;12.50;99.90
19538;DHT22;9914;51.008;4.300;2023-11-19T07:25:43;12.50;99.90
19538;DHT22;9914;51.008;4.300;2023-11-19T07:28:10;12.60;99.90
19538;DHT22;9914;51.008;4.300;2023-11-19T07:30:36;12.70;99.90
19538;DHT22;9914;51.008;4.300;2023-11-19T07:33:03;12.70;99.90
19538;DHT22;9914;51.008;4.300;2023-11-19T07:35:29;12.70;99.90
19538;DHT22;9914;51.008;4.300;2023-11-19T07:37:57;12.70;99.90
19538;DHT22;9914;51.008;4.300;2023-11-19T07:40:23;12.60;99.90
19538;DHT22;9914;51.008;4.300;2023-11-19T07:42:49;12.60;99.90
19538;DHT22;9914;51.008;4.300;2023-11-19T07:45:15;12.60;99.90
19538;DHT22;9914;51.008;4.300;2023-11-19T07:47:42;12.60;99.90
19538;DHT22;9914;51.008;4.300;2023-11-19T07:50:10;12.70;99.90
19538;DHT22;9914;51.008;4.300;2023-11-19T07:52:37;12.70;99.90
19538;DHT22;9914;51.008;4.300;2023-11-19T07:55:02;12.70;99.90
19538;DHT22;9914;51.008;4.300;2023-11-19T07:57:28;12.80;99.90
19538;DHT22;9914;51.008;4.300;2023-11-19T07:59:59;12.80;99.90
19538;DHT22;9914;51.008;4.300;2023-11-19T08:02:26;12.80;99.90
19538;DHT22;9914;51.008;4.300;2023-11-19T08:04:52;12.90;99.90
19538;DHT22;9914;51.008;4.300;2023-11-19T08:07:20;12.90;99.90
19538;DHT22;9914;51.008;4.300;2023-11-19T08:09:46;13.00;99.90
19538;DHT22;9914;51.008;4.300;2023-11-19T08:12:12;13.00;99.90
19538;DHT22;9914;51.008;4.300;2023-11-19T08:14:40;12.90;99.90
19538;DHT22;9914;51.008;4.300;2023-11-19T08:17:05;12.90;99.90
19538;DHT22;9914;51.008;4.300;2023-11-19T08:19:31;12.90;99.90
19538;DHT22;9914;51.008;4.300;2023-11-19T08:21:57;12.90;99.90
19538;DHT22;9914;51.008;4.300;2023-11-19T08:24:23;12.80;99.90
19538;DHT22;9914;51.008;4.300;2023-11-19T08:26:48;12.80;99.90
19538;DHT22;9914;51.008;4.300;2023-11-19T08:29:14;13.00;99.90
19538;DHT22;9914;51.008;4.300;2023-11-19T08:31:40;13.00;99.90
19538;DHT22;9914;51.008;4.300;2023-11-19T08:34:06;13.00;99.90
19538;DHT22;9914;51.008;4.300;2023-11-19T08:36:34;13.00;99.90
19538;DHT22;9914;51.008;4.300;2023-11-19T08:39:00;13.00;99.90
19538;DHT22;9914;51.008;4.300;2023-11-19T08:41:25;13.00;99.90
19538;DHT22;9914;51.008;4.300;2023-11-19T08:43:51;12.80;99.90
19538;DHT22;9914;51.008;4.300;2023-11-19T08:46:17;12.70;99.90
19538;DHT22;9914;51.008;4.300;2023-11-19T08:48:42;12.70;99.90
19538;DHT22;9914;51.008;4.300;2023-11-19T08:51:08;12.70;99.90
19538;DHT22;9914;51.008;4.300;2023-11-19T08:53:34;12.70;99.90
19538;DHT22;9914;51.008;4.300;2023-11-19T08:55:59;12.70;99.90
19538;DHT22;9914;51.008;4.300;2023-11-19T08:58:26;12.70;99.90
19538;DHT22;9914;51.008;4.300;2023-11-19T09:00:51;12.90;99.90
19538;DHT22;9914;51.008;4.300;2023-11-19T09:03:17;12.90;99.90
19538;DHT22;9914;51.008;4.300;2023-11-19T09:05:42;13.00;99.90
19538;DHT22;9914;51.008;4.300;2023-11-19T09:08:08;13.00;99.90
19538;DHT22;9914;51.008;4.300;2023-11-19T09:10:34;13.00;99.90
19538;DHT22;9914;51.008;4.300;2023-11-19T09:12:59;13.00;99.90
19538;DHT22;9914;51.008;4.300;2023-11-19T09:15:25;13.00;99.90
19538;DHT22;9914;51.008;4.300;2023-11-19T09:17:51;13.00;99.90
19538;DHT22;9914;51.008;4.300;2023-11-19T09:20:16;13.10;99.90
19538;DHT22;9914;51.008;4.300;2023-11-19T09:22:42;13.20;99.90
19538;DHT22;9914;51.008;4.300;2023-11-19T09:25:08;13.30;99.90
19538;DHT22;9914;51.008;4.300;2023-11-19T09:27:33;13.30;99.90
19538;DHT22;9914;51.008;4.300;2023-11-19T09:29:59;13.40;99.90
19538;DHT22;9914;51.008;4.300;2023-11-19T09:32:25;13.50;99.90
19538;DHT22;9914;51.008;4.300;2023-11-19T09:34:51;13.70;99.90
19538;DHT22;9914;51.008;4.300;2023-11-19T09:37:16;13.70;99.90
19538;DHT22;9914;51.008;4.300;2023-11-19T09:39:42;13.80;99.90
19538;DHT22;9914;51.008;4.300;2023-11-19T09:42:10;14.00;99.90
19538;DHT22;9914;51.008;4.300;2023-11-19T09:44:38;14.00;99.90
19538;DHT22;9914;51.008;4.300;2023-11-19T09:47:05;14.00;99.90
19538;DHT22;9914;51.008;4.300;2023-11-19T09:49:31;14.10;99.90
19538;DHT22;9914;51.008;4.300;2023-11-19T09:51:57;14.10;99.90
19538;DHT22;9914;51.008;4.300;2023-11-19T09:54:23;14.20;99.90
19538;DHT22;9914;51.008;4.300;2023-11-19T09:56:49;14.20;99.90
19538;DHT22;9914;51.008;4.300;2023-11-19T09:59:15;14.00;99.90
19538;DHT22;9914;51.008;4.300;2023-11-19T10:01:41;13.90;99.90
19538;DHT22;9914;51.008;4.300;2023-11-19T10:04:09;13.80;99.90
19538;DHT22;9914;51.008;4.300;2023-11-19T10:06:35;13.80;99.90
19538;DHT22;9914;51.008;4.300;2023-11-19T10:09:01;13.80;99.90
19538;DHT22;9914;51.008;4.300;2023-11-19T10:11:26;13.80;99.90
19538;DHT22;9914;51.008;4.300;2023-11-19T10:13:53;13.80;99.90
19538;DHT22;9914;51.008;4.300;2023-11-19T10:16:19;13.80;99.90
19538;DHT22;9914;51.008;4.300;2023-11-19T10:21:12;14.20;99.90
19538;DHT22;9914;51.008;4.300;2023-11-19T10:23:51;14.30;99.90
19538;DHT22;9914;51.008;4.300;2023-11-19T10:26:18;14.30;99.90
19538;DHT22;9914;51.008;4.300;2023-11-19T10:28:46;14.30;99.90
19538;DHT22;9914;51.008;4.300;2023-11-19T10:31:16;14.10;99.90
19538;DHT22;9914;51.008;4.300;2023-11-19T10:33:42;14.10;99.90
19538;DHT22;9914;51.008;4.300;2023-11-19T10:36:11;14.00;99.90
19538;DHT22;9914;51.008;4.300;2023-11-19T10:38:38;14.10;99.90
19538;DHT22;9914;51.008;4.300;2023-11-19T10:41:04;14.20;99.90
19538;DHT22;9914;51.008;4.300;2023-11-19T10:43:31;14.30;99.90
19538;DHT22;9914;51.008;4.300;2023-11-19T10:46:10;14.30;99.90
19538;DHT22;9914;51.008;4.300;2023-11-19T10:48:36;14.20;99.90
19538;DHT22;9914;51.008;4.300;2023-11-19T10:51:04;14.20;99.90
19538;DHT22;9914;51.008;4.300;2023-11-19T10:53:35;14.40;99.90
19538;DHT22;9914;51.008;4.300;2023-11-19T10:56:02;14.50;99.90
19538;DHT22;9914;51.008;4.300;2023-11-19T10:58:32;14.50;99.90
19538;DHT22;9914;51.008;4.300;2023-11-19T11:01:01;14.60;99.90
19538;DHT22;9914;51.008;4.300;2023-11-19T11:03:37;14.60;99.90
19538;DHT22;9914;51.008;4.300;2023-11-19T11:06:05;14.50;99.90
19538;DHT22;9914;51.008;4.300;2023-11-19T11:08:31;14.40;99.90
19538;DHT22;9914;51.008;4.300;2023-11-19T11:10:57;14.50;99.90
19538;DHT22;9914;51.008;4.300;2023-11-19T11:13:24;14.60;99.90
19538;DHT22;9914;51.008;4.300;2023-11-19T11:15:51;14.60;99.90
19538;DHT22;9914;51.008;4.300;2023-11-19T11:18:17;14.50;99.90
19538;DHT22;9914;51.008;4.300;2023-11-19T11:20:46;14.50;99.90
19538;DHT22;9914;51.008;4.300;2023-11-19T11:28:48;14.80;99.90
19538;DHT22;9914;51.008;4.300;2023-11-19T11:36:31;14.60;99.90
19538;DHT22;9914;51.008;4.300;2023-11-19T11:39:02;14.60;99.90
19538;DHT22;9914;51.008;4.300;2023-11-19T11:41:33;14.70;99.90
19538;DHT22;9914;51.008;4.300;2023-11-19T11:43:59;14.80;99.90
19538;DHT22;9914;51.008;4.300;2023-11-19T11:49:06;14.80;99.90
19538;DHT22;9914;51.008;4.300;2023-11-19T11:54:31;14.70;99.90
19538;DHT22;9914;51.008;4.300;2023-11-19T11:57:12;14.80;99.90
19538;DHT22;9914;51.008;4.300;2023-11-19T11:59:50;14.90;99.90
19538;DHT22;9914;51.008;4.300;2023-11-19T12:02:20;14.90;99.90
19538;DHT22;9914;51.008;4.300;2023-11-19T12:04:49;14.90;99.90
19538;DHT22;9914;51.008;4.300;2023-11-19T12:07:16;14.70;99.90
19538;DHT22;9914;51.008;4.300;2023-11-19T12:09:46;14.70;99.90
19538;DHT22;9914;51.008;4.300;2023-11-19T12:12:22;14.60;99.90
19538;DHT22;9914;51.008;4.300;2023-11-19T12:15:07;14.40;99.90
19538;DHT22;9914;51.008;4.300;2023-11-19T12:19:59;14.50;99.90
19538;DHT22;9914;51.008;4.300;2023-11-19T12:22:25;14.60;99.90
19538;DHT22;9914;51.008;4.300;2023-11-19T12:24:53;14.60;99.90
19538;DHT22;9914;51.008;4.300;2023-11-19T12:27:19;14.50;99.90
19538;DHT22;9914;51.008;4.300;2023-11-19T12:29:47;14.40;99.90
19538;DHT22;9914;51.008;4.300;2023-11-19T12:32:13;14.40;99.90
19538;DHT22;9914;51.008;4.300;2023-11-19T12:34:39;14.20;99.90
19538;DHT22;9914;51.008;4.300;2023-11-19T12:37:05;14.10;99.90
19538;DHT22;9914;51.008;4.300;2023-11-19T12:39:31;14.10;99.90
19538;DHT22;9914;51.008;4.300;2023-11-19T12:41:57;14.20;99.90
19538;DHT22;9914;51.008;4.300;2023-11-19T12:44:25;14.40;99.90
19538;DHT22;9914;51.008;4.300;2023-11-19T12:47:04;14.30;99.90
19538;DHT22;9914;51.008;4.300;2023-11-19T12:49:30;14.20;99.90
19538;DHT22;9914;51.008;4.300;2023-11-19T12:51:55;14.10;99.90
19538;DHT22;9914;51.008;4.300;2023-11-19T12:54:41;14.10;99.90
19538;DHT22;9914;51.008;4.300;2023-11-19T12:57:07;14.10;99.90
19538;DHT22;9914;51.008;4.300;2023-11-19T12:59:34;14.00;99.90
19538;DHT22;9914;51.008;4.300;2023-11-19T13:02:00;14.10;99.90
19538;DHT22;9914;51.008;4.300;2023-11-19T13:04:29;14.20;99.90
19538;DHT22;9914;51.008;4.300;2023-11-19T13:06:59;14.20;99.90
19538;DHT22;9914;51.008;4.300;2023-11-19T13:09:26;14.20;99.90
19538;DHT22;9914;51.008;4.300;2023-11-19T13:11:52;14.20;99.90
19538;DHT22;9914;51.008;4.300;2023-11-19T13:14:18;14.20;99.90
19538;DHT22;9914;51.008;4.300;2023-11-19T13:16:44;14.20;99.90
19538;DHT22;9914;51.008;4.300;2023-11-19T13:19:14;14.20;99.90
19538;DHT22;9914;51.008;4.300;2023-11-19T13:21:40;14.20;99.90
19538;DHT22;9914;51.008;4.300;2023-11-19T13:24:09;14.30;99.90
19538;DHT22;9914;51.008;4.300;2023-11-19T13:26:34;14.20;99.90
19538;DHT22;9914;51.008;4.300;2023-11-19T13:29:00;14.10;99.90
19538;DHT22;9914;51.008;4.300;2023-11-19T13:31:26;13.90;99.90
19538;DHT22;9914;51.008;4.300;2023-11-19T13:33:52;14.00;99.90
19538;DHT22;9914;51.008;4.300;2023-11-19T13:36:17;14.00;99.90
19538;DHT22;9914;51.008;4.300;2023-11-19T13:38:43;14.10;99.90
19538;DHT22;9914;51.008;4.300;2023-11-19T13:41:12;14.10;99.90
19538;DHT22;9914;51.008;4.300;2023-11-19T13:43:39;14.20;99.90
19538;DHT22;9914;51.008;4.300;2023-11-19T13:46:05;14.20;99.90
19538;DHT22;9914;51.008;4.300;2023-11-19T13:48:31;14.30;99.90
19538;DHT22;9914;51.008;4.300;2023-11-19T13:50:57;14.30;99.90
19538;DHT22;9914;51.008;4.300;2023-11-19T13:53:23;14.30;99.90
19538;DHT22;9914;51.008;4.300;2023-11-19T13:55:49;14.30;99.90
19538;DHT22;9914;51.008;4.300;2023-11-19T13:58:15;14.20;99.90
19538;DHT22;9914;51.008;4.300;2023-11-19T14:00:41;14.20;99.90
19538;DHT22;9914;51.008;4.300;2023-11-19T14:03:08;14.10;99.90
19538;DHT22;9914;51.008;4.300;2023-11-19T14:05:34;14.10;99.90
19538;DHT22;9914;51.008;4.300;2023-11-19T14:08:00;14.20;99.90
19538;DHT22;9914;51.008;4.300;2023-11-19T14:10:26;14.20;99.90
19538;DHT22;9914;51.008;4.300;2023-11-19T14:12:52;14.20;99.90
19538;DHT22;9914;51.008;4.300;2023-11-19T14:15:18;14.20;99.90
19538;DHT22;9914;51.008;4.300;2023-11-19T14:17:44;14.20;99.90
19538;DHT22;9914;51.008;4.300;2023-11-19T14:20:10;14.10;99.90
19538;DHT22;9914;51.008;4.300;2023-11-19T14:22:47;14.00;99.90
19538;DHT22;9914;51.008;4.300;2023-11-19T14:25:14;13.90;99.90
19538;DHT22;9914;51.008;4.300;2023-11-19T14:27:41;13.90;99.90
19538;DHT22;9914;51.008;4.300;2023-11-19T14:30:09;13.90;99.90
19538;DHT22;9914;51.008;4.300;2023-11-19T14:32:36;13.90;99.90
19538;DHT22;9914;51.008;4.300;2023-11-19T14:35:06;13.90;99.90
19538;DHT22;9914;51.008;4.300;2023-11-19T14:37:32;13.80;99.90
19538;DHT22;9914;51.008;4.300;2023-11-19T14:39:59;13.70;99.90
19538;DHT22;9914;51.008;4.300;2023-11-19T14:42:25;13.60;99.90
19538;DHT22;9914;51.008;4.300;2023-11-19T14:44:51;13.60;99.90
19538;DHT22;9914;51.008;4.300;2023-11-19T14:47:21;13.60;99.90
19538;DHT22;9914;51.008;4.300;2023-11-19T14:49:47;13.60;99.90
19538;DHT22;9914;51.008;4.300;2023-11-19T14:52:12;13.60;99.90
19538;DHT22;9914;51.008;4.300;2023-11-19T14:54:38;13.60;99.90
19538;DHT22;9914;51.008;4.300;2023-11-19T14:57:05;13.50;99.90
19538;DHT22;9914;51.008;4.300;2023-11-19T14:59:32;13.60;99.90
19538;DHT22;9914;51.008;4.300;2023-11-19T15:01:58;13.60;99.90
19538;DHT22;9914;51.008;4.300;2023-11-19T15:04:25;13.60;99.90
19538;DHT22;9914;51.008;4.300;2023-11-19T15:06:50;13.60;99.90
19538;DHT22;9914;51.008;4.300;2023-11-19T15:09:16;13.60;99.90
19538;DHT22;9914;51.008;4.300;2023-11-19T15:11:46;13.60;99.90
19538;DHT22;9914;51.008;4.300;2023-11-19T15:14:12;13.60;99.90
19538;DHT22;9914;51.008;4.300;2023-11-19T15:16:42;13.60;99.90
19538;DHT22;9914;51.008;4.300;2023-11-19T15:19:08;13.60;99.90
19538;DHT22;9914;51.008;4.300;2023-11-19T15:21:34;13.70;99.90
19538;DHT22;9914;51.008;4.300;2023-11-19T15:24:00;13.60;99.90
19538;DHT22;9914;51.008;4.300;2023-11-19T15:26:26;13.60;99.90
19538;DHT22;9914;51.008;4.300;2023-11-19T15:28:52;13.50;99.90
19538;DHT22;9914;51.008;4.300;2023-11-19T15:31:22;13.60;99.90
19538;DHT22;9914;51.008;4.300;2023-11-19T15:33:47;13.60;99.90
19538;DHT22;9914;51.008;4.300;2023-11-19T15:36:13;13.60;99.90
19538;DHT22;9914;51.008;4.300;2023-11-19T15:38:40;13.60;99.90
19538;DHT22;9914;51.008;4.300;2023-11-19T15:41:05;13.60;99.90
19538;DHT22;9914;51.008;4.300;2023-11-19T15:43:33;13.60;99.90
19538;DHT22;9914;51.008;4.300;2023-11-19T15:45:58;13.60;99.90
19538;DHT22;9914;51.008;4.300;2023-11-19T15:48:24;13.60;99.90
19538;DHT22;9914;51.008;4.300;2023-11-19T15:50:51;13.70;99.90
19538;DHT22;9914;51.008;4.300;2023-11-19T15:53:17;13.70;99.90
19538;DHT22;9914;51.008;4.300;2023-11-19T15:55:44;13.60;99.90
19538;DHT22;9914;51.008;4.300;2023-11-19T15:58:10;13.60;99.90
19538;DHT22;9914;51.008;4.300;2023-11-19T16:00:36;13.60;99.90
19538;DHT22;9914;51.008;4.300;2023-11-19T16:03:01;13.60;99.90
19538;DHT22;9914;51.008;4.300;2023-11-19T16:05:28;13.40;99.90